createdAt,value
2023-10-29T00:01:28.023Z,8.30
2023-10-29T00:03:55.352Z,8.27
2023-10-29T00:06:21.834Z,8.25
2023-10-29T00:08:48.175Z,8.29
2023-10-29T00:11:14.615Z,8.23
2023-10-29T00:13:40.974Z,8.26
2023-10-29T00:16:07.534Z,8.27
2023-10-29T00:18:33.930Z,8.20
2023-10-29T00:21:00.436Z,8.16
2023-10-29T00:23:27.033Z,8.18
2023-10-29T00:25:53.401Z,8.23
2023-10-29T00:28:19.718Z,8.20
2023-10-29T00:30:46.226Z,8.18
2023-10-29T00:33:12.724Z,8.14
2023-10-29T00:35:39.290Z,8.15
2023-10-29T00:38:05.693Z,8.17
2023-10-29T00:40:32.243Z,8.14
2023-10-29T00:42:59.498Z,8.18
2023-10-29T00:45:26.664Z,8.17
2023-10-29T00:47:53.783Z,8.17
2023-10-29T00:50:21.804Z,8.16
2023-10-29T00:52:50.012Z,8.13
2023-10-29T00:55:17.146Z,8.13
2023-10-29T00:57:43.663Z,8.18
2023-10-29T01:00:11.643Z,8.19
2023-10-29T01:02:38.876Z,8.14
2023-10-29T01:05:06.409Z,8.21
2023-10-29T01:07:34.119Z,8.16
2023-10-29T01:10:00.951Z,8.22
2023-10-29T01:12:28.756Z,8.21
2023-10-29T01:14:55.534Z,8.12
2023-10-29T01:17:22.730Z,8.09
2023-10-29T01:19:51.309Z,8.02
2023-10-29T01:22:19.110Z,8.05
2023-10-29T01:24:47.926Z,8.06
2023-10-29T01:27:14.437Z,8.10
2023-10-29T01:29:41.088Z,8.12
2023-10-29T01:32:21.060Z,8.04
2023-10-29T01:34:47.669Z,8.01
2023-10-29T01:37:14.146Z,8.08
2023-10-29T01:39:40.550Z,8.14
2023-10-29T01:42:07.106Z,8.08
2023-10-29T01:44:33.507Z,8.08
2023-10-29T01:46:59.821Z,8.15
2023-10-29T01:49:26.172Z,8.14
2023-10-29T01:51:52.868Z,8.16
2023-10-29T01:54:19.203Z,8.21
2023-10-29T01:56:45.688Z,8.25
2023-10-29T01:59:15.730Z,8.33
2023-10-29T02:01:43.199Z,8.23
2023-10-29T02:04:10.549Z,8.24
2023-10-29T02:06:40.650Z,8.30
2023-10-29T02:09:09.797Z,8.27
2023-10-29T02:11:38.899Z,8.29
2023-10-29T02:14:06.380Z,8.31
2023-10-29T02:16:33.393Z,8.31
2023-10-29T02:18:59.798Z,8.26
2023-10-29T02:21:26.218Z,8.30
2023-10-29T02:23:53.921Z,8.38
2023-10-29T02:26:21.150Z,8.33
2023-10-29T02:28:47.546Z,8.33
2023-10-29T02:31:18.300Z,8.38
2023-10-29T02:33:45.329Z,8.34
2023-10-29T02:36:12.061Z,8.29
2023-10-29T02:38:38.845Z,8.36
2023-10-29T02:41:06.201Z,8.32
2023-10-29T02:43:32.569Z,8.34
2023-10-29T02:46:00.207Z,8.26
2023-10-29T02:48:27.189Z,8.27
2023-10-29T02:50:54.809Z,8.33
2023-10-29T02:53:22.063Z,8.27
2023-10-29T02:55:48.980Z,8.23
2023-10-29T02:58:16.750Z,8.20
2023-10-29T03:00:43.152Z,8.28
2023-10-29T03:03:09.724Z,8.26
2023-10-29T03:05:50.207Z,8.23
2023-10-29T03:08:20.768Z,8.18
2023-10-29T03:10:50.688Z,8.22
2023-10-29T03:13:17.187Z,8.21
2023-10-29T03:15:44.468Z,8.20
2023-10-29T03:18:13.323Z,8.23
2023-10-29T03:20:40.580Z,8.21
2023-10-29T03:23:07.258Z,8.23
2023-10-29T03:25:34.172Z,8.26
2023-10-29T03:28:00.746Z,8.29
2023-10-29T03:30:27.088Z,8.30
2023-10-29T03:32:53.941Z,8.26
2023-10-29T03:35:20.354Z,8.28
2023-10-29T03:37:46.886Z,8.31
2023-10-29T03:40:13.495Z,8.32
2023-10-29T03:42:39.972Z,8.36
2023-10-29T03:45:07.056Z,8.34
2023-10-29T03:47:33.495Z,8.34
2023-10-29T03:50:00.226Z,8.35
2023-10-29T03:52:26.769Z,8.38
2023-10-29T03:54:55.060Z,8.41
2023-10-29T03:57:21.893Z,8.38
2023-10-29T03:59:49.002Z,8.40
2023-10-29T04:02:15.400Z,8.45
2023-10-29T04:04:43.964Z,8.47
2023-10-29T04:07:13.283Z,8.49
2023-10-29T04:09:39.801Z,8.50
2023-10-29T04:12:07.297Z,8.54
2023-10-29T04:14:36.409Z,8.50
2023-10-29T04:17:02.832Z,8.53
2023-10-29T04:19:29.191Z,8.48
2023-10-29T04:21:55.532Z,8.49
2023-10-29T04:24:21.855Z,8.53
2023-10-29T04:26:48.462Z,8.54
2023-10-29T04:29:16.024Z,8.52
2023-10-29T04:31:42.422Z,8.54
2023-10-29T04:34:09.408Z,8.56
2023-10-29T04:36:35.791Z,8.59
2023-10-29T04:39:02.260Z,8.67
2023-10-29T04:41:28.926Z,8.68
2023-10-29T04:43:55.521Z,8.69
2023-10-29T04:46:22.139Z,8.73
2023-10-29T04:48:48.561Z,8.74
2023-10-29T04:51:14.936Z,8.80
2023-10-29T04:53:41.637Z,8.85
2023-10-29T04:56:08.182Z,8.88
2023-10-29T04:58:35.114Z,8.89
2023-10-29T05:01:01.464Z,8.94
2023-10-29T05:03:30.790Z,8.98
2023-10-29T05:05:57.378Z,8.99
2023-10-29T05:08:23.806Z,9.03
2023-10-29T05:10:50.210Z,9.02
2023-10-29T05:13:16.668Z,9.05
2023-10-29T05:15:43.804Z,9.05
2023-10-29T05:18:12.200Z,9.07
2023-10-29T05:20:39.316Z,9.09
2023-10-29T05:23:06.852Z,9.08
2023-10-29T05:25:33.224Z,9.15
2023-10-29T05:27:59.976Z,9.18
2023-10-29T05:30:26.666Z,9.18
2023-10-29T05:32:53.399Z,9.18
2023-10-29T05:35:20.114Z,9.16
2023-10-29T05:37:46.499Z,9.19
2023-10-29T05:40:12.949Z,9.18
2023-10-29T05:42:39.351Z,9.18
2023-10-29T05:45:07.927Z,9.21
2023-10-29T05:47:34.862Z,9.20
2023-10-29T05:50:02.269Z,9.21
2023-10-29T05:52:28.897Z,9.22
2023-10-29T05:54:55.346Z,9.25
2023-10-29T05:57:21.775Z,9.31
2023-10-29T05:59:48.244Z,9.27
2023-10-29T06:02:14.951Z,9.30
2023-10-29T06:04:41.909Z,9.33
2023-10-29T06:07:09.557Z,9.34
2023-10-29T06:09:36.268Z,9.33
2023-10-29T06:12:02.867Z,9.35
2023-10-29T06:14:29.662Z,9.40
2023-10-29T06:17:08.659Z,9.44
2023-10-29T06:19:42.390Z,9.40
2023-10-29T06:22:09.664Z,9.39
2023-10-29T06:24:36.413Z,9.43
2023-10-29T06:27:03.803Z,9.44
2023-10-29T06:29:30.243Z,9.45
2023-10-29T06:31:56.647Z,9.49
2023-10-29T06:34:23.164Z,9.51
2023-10-29T06:36:50.058Z,9.57
2023-10-29T06:39:18.216Z,9.56
2023-10-29T06:41:45.079Z,9.61
2023-10-29T06:44:11.656Z,9.72
2023-10-29T06:46:38.363Z,9.67
2023-10-29T06:49:04.859Z,9.72
2023-10-29T06:51:31.329Z,9.72
2023-10-29T06:53:57.796Z,9.78
2023-10-29T06:56:24.308Z,9.85
2023-10-29T06:58:50.724Z,9.86
2023-10-29T07:01:17.098Z,9.91
2023-10-29T07:03:43.960Z,9.90
2023-10-29T07:06:11.911Z,9.95
2023-10-29T07:08:39.242Z,10.00
2023-10-29T07:11:06.427Z,10.08
2023-10-29T07:13:33.545Z,10.13
2023-10-29T07:16:01.709Z,10.12
2023-10-29T07:18:28.365Z,10.08
2023-10-29T07:20:57.206Z,10.18
2023-10-29T07:23:24.125Z,10.18
2023-10-29T07:25:51.924Z,10.24
2023-10-29T07:28:19.124Z,10.23
2023-10-29T07:30:45.840Z,10.23
2023-10-29T07:33:12.481Z,10.25
2023-10-29T07:35:40.588Z,10.32
2023-10-29T07:38:08.818Z,10.31
2023-10-29T07:40:39.721Z,10.33
2023-10-29T07:43:06.265Z,10.38
2023-10-29T07:45:33.301Z,10.39
2023-10-29T07:48:00.059Z,10.49
2023-10-29T07:50:27.106Z,10.51
2023-10-29T07:52:54.035Z,10.52
2023-10-29T07:55:21.103Z,10.55
2023-10-29T07:57:47.861Z,10.61
2023-10-29T08:00:15.306Z,10.58
2023-10-29T08:02:44.485Z,10.59
2023-10-29T08:05:16.223Z,10.62
2023-10-29T08:07:42.756Z,10.69
2023-10-29T08:10:10.782Z,10.68
2023-10-29T08:12:38.277Z,10.72
2023-10-29T08:15:05.513Z,10.78
2023-10-29T08:17:32.532Z,10.79
2023-10-29T08:20:01.895Z,10.80
2023-10-29T08:22:29.653Z,10.80
2023-10-29T08:24:59.166Z,10.76
2023-10-29T08:27:25.851Z,10.79
2023-10-29T08:29:56.297Z,10.81
2023-10-29T08:32:22.848Z,10.81
2023-10-29T08:34:49.579Z,10.84
2023-10-29T08:37:16.660Z,10.81
2023-10-29T08:39:43.372Z,10.82
2023-10-29T08:42:10.131Z,10.85
2023-10-29T08:44:37.247Z,10.87
2023-10-29T08:47:04.651Z,10.97
2023-10-29T08:49:31.489Z,11.12
2023-10-29T08:51:58.172Z,11.21
2023-10-29T08:54:25.095Z,11.28
2023-10-29T08:56:52.070Z,11.36
2023-10-29T08:59:18.757Z,11.39
2023-10-29T09:01:45.598Z,11.43
2023-10-29T09:04:13.305Z,11.49
2023-10-29T09:06:39.904Z,11.61
2023-10-29T09:09:06.412Z,11.73
2023-10-29T09:11:32.970Z,11.83
2023-10-29T09:13:59.395Z,11.97
2023-10-29T09:16:25.807Z,12.05
2023-10-29T09:18:52.474Z,12.01
2023-10-29T09:21:18.867Z,12.11
2023-10-29T09:23:45.241Z,12.19
2023-10-29T09:26:11.624Z,12.27
2023-10-29T09:28:38.651Z,12.40
2023-10-29T09:31:05.601Z,12.37
2023-10-29T09:33:32.138Z,12.22
2023-10-29T09:35:58.551Z,12.06
2023-10-29T09:38:24.967Z,12.09
2023-10-29T09:40:53.799Z,12.09
2023-10-29T09:43:24.558Z,12.16
2023-10-29T09:45:53.630Z,12.27
2023-10-29T09:48:20.169Z,12.30
2023-10-29T09:50:46.986Z,12.36
2023-10-29T09:53:16.050Z,12.48
2023-10-29T09:55:42.592Z,12.51
2023-10-29T09:58:10.047Z,12.39
2023-10-29T10:00:37.751Z,12.43
2023-10-29T10:03:05.336Z,12.43
2023-10-29T10:05:34.167Z,12.44
2023-10-29T10:08:01.430Z,12.51
2023-10-29T10:10:40.097Z,12.61
2023-10-29T10:13:07.337Z,12.76
2023-10-29T10:15:34.442Z,12.84
2023-10-29T10:18:03.474Z,12.95
2023-10-29T10:20:30.468Z,13.04
2023-10-29T10:23:05.057Z,13.22
2023-10-29T10:25:33.326Z,13.26
2023-10-29T10:28:00.936Z,13.32
2023-10-29T10:30:35.908Z,13.39
2023-10-29T10:33:16.151Z,13.35
2023-10-29T10:35:45.166Z,13.31
2023-10-29T10:38:12.697Z,13.34
2023-10-29T10:40:40.012Z,13.39
2023-10-29T10:43:08.629Z,13.45
2023-10-29T10:45:38.100Z,13.44
2023-10-29T10:48:06.260Z,13.48
2023-10-29T10:50:34.115Z,13.53
2023-10-29T10:53:01.412Z,13.55
2023-10-29T10:55:47.445Z,13.62
2023-10-29T10:58:18.886Z,13.57
2023-10-29T11:00:46.283Z,13.56
2023-10-29T11:03:28.968Z,13.48
2023-10-29T11:05:58.833Z,13.43
2023-10-29T11:08:26.112Z,13.44
2023-10-29T11:10:54.609Z,13.44
2023-10-29T11:13:21.843Z,13.39
2023-10-29T11:15:49.889Z,13.41
2023-10-29T11:18:30.947Z,13.56
2023-10-29T11:20:58.166Z,13.69
2023-10-29T11:23:29.907Z,13.68
2023-10-29T11:26:22.482Z,13.75
2023-10-29T11:28:50.839Z,13.83
2023-10-29T11:31:18.996Z,13.78
2023-10-29T11:33:48.103Z,13.76
2023-10-29T11:36:34.175Z,13.70
2023-10-29T11:39:16.210Z,13.74
2023-10-29T11:41:45.306Z,13.76
2023-10-29T11:44:25.972Z,13.74
2023-10-29T11:47:04.874Z,13.73
2023-10-29T11:49:46.704Z,13.80
2023-10-29T11:52:13.607Z,13.89
2023-10-29T11:54:40.120Z,13.97
2023-10-29T11:57:07.332Z,14.00
2023-10-29T11:59:33.986Z,14.06
2023-10-29T12:02:01.200Z,14.18
2023-10-29T12:04:33.797Z,14.31
2023-10-29T12:07:00.651Z,14.19
2023-10-29T12:09:28.812Z,14.10
2023-10-29T12:11:55.768Z,14.13
2023-10-29T12:14:43.615Z,14.01
2023-10-29T12:17:11.095Z,14.01
2023-10-29T12:19:46.068Z,13.98
2023-10-29T12:22:23.669Z,13.90
2023-10-29T12:24:53.221Z,13.94
2023-10-29T12:27:20.459Z,13.96
2023-10-29T12:29:46.887Z,13.85
2023-10-29T12:32:21.835Z,13.83
2023-10-29T12:34:50.580Z,13.82
2023-10-29T12:37:22.391Z,13.78
2023-10-29T12:39:57.521Z,13.78
2023-10-29T12:42:53.210Z,13.91
2023-10-29T12:45:27.587Z,14.03
2023-10-29T12:48:13.298Z,13.99
2023-10-29T12:50:51.440Z,14.00
2023-10-29T12:53:25.445Z,13.98
2023-10-29T12:55:52.459Z,13.83
2023-10-29T12:58:18.978Z,13.83
2023-10-29T13:00:45.757Z,13.90
2023-10-29T13:03:12.292Z,13.84
2023-10-29T13:05:38.877Z,13.80
2023-10-29T13:08:06.068Z,13.81
2023-10-29T13:10:37.000Z,13.90
2023-10-29T13:13:03.558Z,13.96
2023-10-29T13:15:30.726Z,13.99
2023-10-29T13:17:57.258Z,14.08
2023-10-29T13:20:27.743Z,14.04
2023-10-29T13:22:54.454Z,14.03
2023-10-29T13:25:21.027Z,14.05
2023-10-29T13:27:47.389Z,14.09
2023-10-29T13:30:14.267Z,14.00
2023-10-29T13:32:40.897Z,13.96
2023-10-29T13:35:10.824Z,13.95
2023-10-29T13:37:38.560Z,13.87
2023-10-29T13:40:07.401Z,13.91
2023-10-29T13:42:33.786Z,13.86
2023-10-29T13:45:00.348Z,13.90
2023-10-29T13:47:27.063Z,13.79
2023-10-29T13:49:53.561Z,13.86
2023-10-29T13:52:20.048Z,13.83
2023-10-29T13:54:46.523Z,13.76
2023-10-29T13:57:13.442Z,13.79
2023-10-29T13:59:39.842Z,13.81
2023-10-29T14:02:06.893Z,13.74
2023-10-29T14:04:34.871Z,13.75
2023-10-29T14:07:02.163Z,13.68
2023-10-29T14:09:28.889Z,13.58
2023-10-29T14:11:55.307Z,13.59
2023-10-29T14:14:23.126Z,13.52
2023-10-29T14:16:49.802Z,13.45
2023-10-29T14:19:18.175Z,13.46
2023-10-29T14:21:51.365Z,13.45
2023-10-29T14:24:17.973Z,13.38
2023-10-29T14:26:44.375Z,13.35
2023-10-29T14:29:17.003Z,13.41
2023-10-29T14:31:43.736Z,13.35
2023-10-29T14:34:10.095Z,13.33
2023-10-29T14:36:37.518Z,13.29
2023-10-29T14:39:04.189Z,13.30
2023-10-29T14:41:30.617Z,13.33
2023-10-29T14:43:58.822Z,13.28
2023-10-29T14:46:25.393Z,13.33
2023-10-29T14:48:51.972Z,13.19
2023-10-29T14:51:18.534Z,13.23
2023-10-29T14:53:45.010Z,13.17
2023-10-29T14:56:14.231Z,13.23
2023-10-29T14:58:43.225Z,13.20
2023-10-29T15:01:10.170Z,13.14
2023-10-29T15:03:36.918Z,13.10
2023-10-29T15:06:09.586Z,13.08
2023-10-29T15:08:36.313Z,13.06
2023-10-29T15:11:03.320Z,12.94
2023-10-29T15:13:29.870Z,12.92
2023-10-29T15:15:56.551Z,12.92
2023-10-29T15:18:23.184Z,12.88
2023-10-29T15:21:00.398Z,12.88
2023-10-29T15:23:28.434Z,12.85
2023-10-29T15:25:55.083Z,12.87
2023-10-29T15:28:21.740Z,12.89
2023-10-29T15:30:48.188Z,12.72
2023-10-29T15:33:17.272Z,12.65
2023-10-29T15:35:43.897Z,12.66
2023-10-29T15:38:11.058Z,12.61
2023-10-29T15:40:38.573Z,12.56
2023-10-29T15:43:04.937Z,12.56
2023-10-29T15:45:31.393Z,12.39
2023-10-29T15:47:58.020Z,12.26
2023-10-29T15:50:24.393Z,12.15
2023-10-29T15:52:51.555Z,12.18
2023-10-29T15:55:18.555Z,12.08
2023-10-29T15:57:45.284Z,12.00
2023-10-29T16:00:13.681Z,11.95
2023-10-29T16:02:40.228Z,11.89
2023-10-29T16:05:08.144Z,11.83
2023-10-29T16:07:35.326Z,11.77
2023-10-29T16:10:01.786Z,11.62
2023-10-29T16:12:28.192Z,11.53
2023-10-29T16:14:54.984Z,11.25
2023-10-29T16:17:21.388Z,11.29
2023-10-29T16:19:48.001Z,11.38
2023-10-29T16:22:16.330Z,11.27
2023-10-29T16:24:42.719Z,11.21
2023-10-29T16:27:09.476Z,11.12
2023-10-29T16:29:36.111Z,11.07
2023-10-29T16:32:06.100Z,11.06
2023-10-29T16:34:32.892Z,11.05
2023-10-29T16:37:00.727Z,11.01
2023-10-29T16:39:28.272Z,10.99
2023-10-29T16:42:01.910Z,10.98
2023-10-29T16:44:31.570Z,10.94
2023-10-29T16:46:58.335Z,10.98
2023-10-29T16:49:25.261Z,10.94
2023-10-29T16:51:52.938Z,10.94
2023-10-29T16:54:20.488Z,10.92
2023-10-29T16:56:49.703Z,11.01
2023-10-29T16:59:16.167Z,10.97
2023-10-29T17:01:43.670Z,10.94
2023-10-29T17:04:10.086Z,10.94
2023-10-29T17:06:36.549Z,10.98
2023-10-29T17:09:03.399Z,10.98
2023-10-29T17:11:31.339Z,10.97
2023-10-29T17:13:57.834Z,10.94
2023-10-29T17:16:24.358Z,10.91
2023-10-29T17:18:51.272Z,10.95
2023-10-29T17:21:20.069Z,10.95
2023-10-29T17:23:48.468Z,11.00
2023-10-29T17:26:19.731Z,11.11
2023-10-29T17:28:48.450Z,11.18
2023-10-29T17:31:19.588Z,11.24
2023-10-29T17:33:47.544Z,11.36
2023-10-29T17:36:18.304Z,11.51
2023-10-29T17:38:47.632Z,11.55
2023-10-29T17:41:19.226Z,11.58
2023-10-29T17:43:46.892Z,11.49
2023-10-29T17:46:14.649Z,11.49
2023-10-29T17:48:41.447Z,11.45
2023-10-29T17:51:08.731Z,11.36
2023-10-29T17:53:37.488Z,11.49
2023-10-29T17:56:04.664Z,11.54
2023-10-29T17:58:32.310Z,11.60
2023-10-29T18:00:59.755Z,11.60
2023-10-29T18:03:28.285Z,11.62
2023-10-29T18:05:55.144Z,11.67
2023-10-29T18:08:21.618Z,11.69
2023-10-29T18:10:48.282Z,11.71
2023-10-29T18:13:14.753Z,11.69
2023-10-29T18:15:41.297Z,11.69
2023-10-29T18:18:07.920Z,11.52
2023-10-29T18:20:35.096Z,11.55
2023-10-29T18:23:03.225Z,11.50
2023-10-29T18:25:31.341Z,11.47
2023-10-29T18:27:57.702Z,11.45
2023-10-29T18:30:24.903Z,11.43
2023-10-29T18:32:53.869Z,11.38
2023-10-29T18:35:20.427Z,11.26
2023-10-29T18:37:50.798Z,11.22
2023-10-29T18:40:20.429Z,11.21
2023-10-29T18:42:47.140Z,11.14
2023-10-29T18:45:14.208Z,11.09
2023-10-29T18:47:40.843Z,11.07
2023-10-29T18:50:07.902Z,11.03
2023-10-29T18:52:36.142Z,10.90
2023-10-29T18:55:03.539Z,10.88
2023-10-29T18:57:30.125Z,10.86
2023-10-29T18:59:56.768Z,10.81
2023-10-29T19:02:23.233Z,10.82
2023-10-29T19:04:50.431Z,10.72
2023-10-29T19:07:16.837Z,10.66
2023-10-29T19:09:43.231Z,10.67
2023-10-29T19:12:09.908Z,10.68
2023-10-29T19:14:37.198Z,10.70
2023-10-29T19:17:09.266Z,10.72
2023-10-29T19:19:39.366Z,10.71
2023-10-29T19:22:06.690Z,10.70
2023-10-29T19:24:34.033Z,10.57
2023-10-29T19:27:02.211Z,10.60
2023-10-29T19:29:28.585Z,10.57
2023-10-29T19:31:54.986Z,10.56
2023-10-29T19:34:21.559Z,10.57
2023-10-29T19:36:48.125Z,10.58
2023-10-29T19:39:14.876Z,10.59
2023-10-29T19:41:41.435Z,10.45
2023-10-29T19:44:07.784Z,10.40
2023-10-29T19:46:35.277Z,10.34
2023-10-29T19:49:05.344Z,10.27
2023-10-29T19:51:32.137Z,10.21
2023-10-29T19:54:00.556Z,10.20
2023-10-29T19:56:27.854Z,10.21
2023-10-29T19:58:54.570Z,10.14
2023-10-29T20:01:22.905Z,10.14
2023-10-29T20:03:49.740Z,10.07
2023-10-29T20:06:16.592Z,10.05
2023-10-29T20:08:46.349Z,10.00
2023-10-29T20:11:14.865Z,10.00
2023-10-29T20:13:47.143Z,10.01
2023-10-29T20:16:14.726Z,9.95
2023-10-29T20:18:41.862Z,9.93
2023-10-29T20:21:16.935Z,9.88
2023-10-29T20:23:47.765Z,9.91
2023-10-29T20:26:15.879Z,9.87
2023-10-29T20:28:42.877Z,9.81
2023-10-29T20:31:09.605Z,9.78
2023-10-29T20:33:36.636Z,9.81
2023-10-29T20:36:04.530Z,9.81
2023-10-29T20:38:31.276Z,9.84
2023-10-29T20:40:57.700Z,9.78
2023-10-29T20:43:25.294Z,9.68
2023-10-29T20:45:54.207Z,9.72
2023-10-29T20:48:22.540Z,9.74
2023-10-29T20:50:53.171Z,9.74
2023-10-29T20:53:20.132Z,9.66
2023-10-29T20:55:47.251Z,9.76
2023-10-29T20:58:14.754Z,9.74
2023-10-29T21:00:42.178Z,9.67
2023-10-29T21:03:08.857Z,9.67
2023-10-29T21:05:35.343Z,9.69
2023-10-29T21:08:01.854Z,9.72
2023-10-29T21:10:29.906Z,9.84
2023-10-29T21:12:56.357Z,9.88
2023-10-29T21:15:24.863Z,9.84
2023-10-29T21:17:51.560Z,9.85
2023-10-29T21:20:18.089Z,9.85
2023-10-29T21:22:46.257Z,9.81
2023-10-29T21:25:12.823Z,9.80
2023-10-29T21:27:40.752Z,9.83
2023-10-29T21:30:08.387Z,9.81
2023-10-29T21:32:34.874Z,9.82
2023-10-29T21:35:01.626Z,9.83
2023-10-29T21:37:28.041Z,9.89
2023-10-29T21:39:54.577Z,9.90
2023-10-29T21:42:20.984Z,9.89
2023-10-29T21:44:47.769Z,9.90
2023-10-29T21:47:14.760Z,9.87
2023-10-29T21:49:43.718Z,9.98
2023-10-29T21:52:10.052Z,10.01
2023-10-29T21:54:36.541Z,10.07
2023-10-29T21:57:04.295Z,9.98
2023-10-29T21:59:31.326Z,9.96
2023-10-29T22:01:58.082Z,10.00
2023-10-29T22:04:24.817Z,9.91
2023-10-29T22:06:51.397Z,9.85
2023-10-29T22:09:17.928Z,9.86
2023-10-29T22:11:46.127Z,9.83
2023-10-29T22:14:12.867Z,9.83
2023-10-29T22:16:42.258Z,9.82
2023-10-29T22:19:08.700Z,9.86
2023-10-29T22:21:36.848Z,9.80
2023-10-29T22:24:03.670Z,9.83
2023-10-29T22:26:30.448Z,9.80
2023-10-29T22:28:56.879Z,9.78
2023-10-29T22:31:23.641Z,9.75
2023-10-29T22:33:50.229Z,9.72
2023-10-29T22:36:16.585Z,9.69
2023-10-29T22:38:43.107Z,9.72
2023-10-29T22:41:13.263Z,9.72
2023-10-29T22:43:39.888Z,9.73
2023-10-29T22:46:06.614Z,9.73
2023-10-29T22:48:33.728Z,9.71
2023-10-29T22:51:03.886Z,9.63
2023-10-29T22:53:30.632Z,9.66
2023-10-29T22:56:01.153Z,9.69
2023-10-29T22:58:29.437Z,9.66
2023-10-29T23:00:56.261Z,9.67
2023-10-29T23:03:22.807Z,9.70
2023-10-29T23:05:49.535Z,9.69
2023-10-29T23:08:17.021Z,9.69
2023-10-29T23:10:43.692Z,9.67
2023-10-29T23:13:10.248Z,9.71
2023-10-29T23:15:36.882Z,9.75
2023-10-29T23:18:03.653Z,9.72
2023-10-29T23:20:30.179Z,9.73
2023-10-29T23:22:56.529Z,9.78
2023-10-29T23:25:23.159Z,9.82
2023-10-29T23:27:49.526Z,9.79
2023-10-29T23:30:16.181Z,9.80
2023-10-29T23:32:42.672Z,9.82
2023-10-29T23:35:09.244Z,9.84
2023-10-29T23:37:35.620Z,9.84
2023-10-29T23:40:02.367Z,9.85
2023-10-29T23:42:28.758Z,9.85
2023-10-29T23:44:55.708Z,9.87
2023-10-29T23:47:23.345Z,9.86
2023-10-29T23:49:50.047Z,9.89
2023-10-29T23:52:16.560Z,9.92
2023-10-29T23:54:45.622Z,9.91
2023-10-29T23:57:12.869Z,9.95
2023-10-29T23:59:39.646Z,9.94
